Airfield :
LOGIN :

Register | Disclaimer

   EN    FR    IT 

 










Legend :    VFR   Marginal VFR   IFR   Intensive IFR   Very Intensive IFR
Visi :
Ceiling :
>= 8 km
>= 3000ft
5 to 8 km
1000 to 3000 ft
1500m to 5 km
500 to 1000 ft
800 to 1500m
200 to 500 ft
< 800m
< 200 ft
Symbols :   Thunderstorms  Fog  Heavy snow  Heavy precipitations  Wind > 20 kt
SIGMETs :     Misc.  Thunderstorms  Icing  Turbulence  Mountain Waves  Volcanic Ashes






- Airport Elevation : 160 ft
- IATA code : LRT


LFRH - Lorient Lann Bihoue

CURRENT METAR :
  • 191730Z AUTO 24014KT 9999 FEW014 OVC050 10/08 Q1024 TEMPO 4500 RA BKN010

EXPIRED METARs :
  • 191700Z AUTO 23014KT 9999 FEW016 BKN052 10/08 Q1025 TEMPO 4500 RA BKN008
  • 191630Z AUTO 23015KT 9999 FEW018 SCT034 BKN048 10/07 Q1025 TEMPO 4500 RA BKN008 BECMG 25010G25KT
  • 191600Z AUTO 24017KT 9999 FEW019 SCT024 OVC052 11/08 Q1025 TEMPO 4500 RA BKN008 BECMG 25010G25KT
  • 191530Z AUTO 23014KT 9999 FEW016 BKN050 11/08 Q1025 TEMPO 4500 RA BKN008
  • 191500Z AUTO 24017KT 9999 FEW017 BKN047 BKN220 11/08 Q1026 TEMPO 4500 RA BKN008 BECMG 25010G25KT

TAF TAF LFRH
Valid from the 19 at 18:00 until the 20 at 18:00 UTC


191700Z 1918/2018 24010G20KT 9999 SCT015 BKN025
PROB40
TEMPO 1918/2002 4500 RA BKN010
BECMG 2008/2010 22020G35KT BKN015
BECMG 2010/2012 4000 RA BKN008 OVC012
BECMG 2012/2014 32025G35KT
BECMG 2014/2016 32012KT 9999 NSW BKN030



MET'MAP, your aeronautical weather chart ! - Copyright ORBIFLY December 2007 - Disclaimer

ORBIFLY MET'MAP TEAM :

Programming & Development : Alexandra Zaïnal
Concept & original design : Baudouin d'Aumeries
Assistance for programming : Marc-Olivier Méhu
Technical & hardware support : Manuel Goepfert

Contact : metmap@orbifly.com




SOURCES & CREDITS :

   NOAA